sensor_id;sensor_type;location;lat;lon;timestamp;P1;durP1;ratioP1;P2;durP2;ratioP2
45402;SDS011;47427;51.976;5.326;2023-02-02T00:02:25;28.20;;;7.07;;
45402;SDS011;47427;51.976;5.326;2023-02-02T00:05:48;23.38;;;6.63;;
45402;SDS011;47427;51.976;5.326;2023-02-02T00:09:16;26.58;;;6.45;;
45402;SDS011;47427;51.976;5.326;2023-02-02T00:12:39;26.02;;;5.63;;
45402;SDS011;47427;51.976;5.326;2023-02-02T00:20:07;15.23;;;4.32;;
45402;SDS011;47427;51.976;5.326;2023-02-02T00:23:30;9.18;;;3.40;;
45402;SDS011;47427;51.976;5.326;2023-02-02T00:26:52;11.27;;;4.15;;
45402;SDS011;47427;51.976;5.326;2023-02-02T00:30:18;13.93;;;4.82;;
45402;SDS011;47427;51.976;5.326;2023-02-02T00:33:44;19.75;;;5.88;;
45402;SDS011;47427;51.976;5.326;2023-02-02T00:37:07;21.17;;;5.25;;
45402;SDS011;47427;51.976;5.326;2023-02-02T00:40:30;22.27;;;5.55;;
45402;SDS011;47427;51.976;5.326;2023-02-02T00:43:51;24.67;;;6.47;;
45402;SDS011;47427;51.976;5.326;2023-02-02T00:47:33;24.73;;;5.90;;
45402;SDS011;47427;51.976;5.326;2023-02-02T00:50:55;25.88;;;6.35;;
45402;SDS011;47427;51.976;5.326;2023-02-02T00:54:17;30.40;;;6.38;;
45402;SDS011;47427;51.976;5.326;2023-02-02T00:57:40;30.38;;;5.60;;
45402;SDS011;47427;51.976;5.326;2023-02-02T01:01:03;27.80;;;7.60;;
45402;SDS011;47427;51.976;5.326;2023-02-02T01:04:26;31.23;;;6.97;;
45402;SDS011;47427;51.976;5.326;2023-02-02T01:07:49;22.15;;;6.25;;
45402;SDS011;47427;51.976;5.326;2023-02-02T01:11:10;24.90;;;6.18;;
45402;SDS011;47427;51.976;5.326;2023-02-02T01:14:33;21.45;;;5.20;;
45402;SDS011;47427;51.976;5.326;2023-02-02T01:17:56;21.08;;;5.05;;
45402;SDS011;47427;51.976;5.326;2023-02-02T01:21:18;15.73;;;4.38;;
45402;SDS011;47427;51.976;5.326;2023-02-02T01:24:41;11.18;;;3.95;;
45402;SDS011;47427;51.976;5.326;2023-02-02T01:28:02;8.57;;;3.60;;
45402;SDS011;47427;51.976;5.326;2023-02-02T01:31:26;11.70;;;4.93;;
45402;SDS011;47427;51.976;5.326;2023-02-02T01:34:49;18.02;;;4.45;;
45402;SDS011;47427;51.976;5.326;2023-02-02T01:38:11;17.23;;;4.70;;
45402;SDS011;47427;51.976;5.326;2023-02-02T01:41:33;17.13;;;5.18;;
45402;SDS011;47427;51.976;5.326;2023-02-02T01:45:08;9.43;;;3.63;;
45402;SDS011;47427;51.976;5.326;2023-02-02T01:48:39;16.45;;;5.20;;
45402;SDS011;47427;51.976;5.326;2023-02-02T01:52:11;12.68;;;4.88;;
45402;SDS011;47427;51.976;5.326;2023-02-02T01:55:37;15.20;;;5.30;;
45402;SDS011;47427;51.976;5.326;2023-02-02T01:59:01;10.75;;;4.32;;
45402;SDS011;47427;51.976;5.326;2023-02-02T02:02:24;15.25;;;5.20;;
45402;SDS011;47427;51.976;5.326;2023-02-02T02:05:54;13.13;;;5.13;;
45402;SDS011;47427;51.976;5.326;2023-02-02T02:09:21;21.40;;;6.65;;
45402;SDS011;47427;51.976;5.326;2023-02-02T02:12:45;21.17;;;6.57;;
45402;SDS011;47427;51.976;5.326;2023-02-02T02:16:12;25.10;;;5.97;;
45402;SDS011;47427;51.976;5.326;2023-02-02T02:20:05;26.00;;;6.30;;
45402;SDS011;47427;51.976;5.326;2023-02-02T02:32:59;30.48;;;8.32;;
45402;SDS011;47427;51.976;5.326;2023-02-02T02:44:08;31.40;;;7.07;;
45402;SDS011;47427;51.976;5.326;2023-02-02T02:47:33;33.17;;;6.63;;
45402;SDS011;47427;51.976;5.326;2023-02-02T02:51:08;22.48;;;7.00;;
45402;SDS011;47427;51.976;5.326;2023-02-02T02:55:03;26.88;;;6.95;;
45402;SDS011;47427;51.976;5.326;2023-02-02T03:02:03;26.83;;;7.25;;
45402;SDS011;47427;51.976;5.326;2023-02-02T03:05:53;27.05;;;7.63;;
45402;SDS011;47427;51.976;5.326;2023-02-02T03:09:29;23.95;;;7.10;;
45402;SDS011;47427;51.976;5.326;2023-02-02T03:12:57;26.55;;;6.28;;
45402;SDS011;47427;51.976;5.326;2023-02-02T03:16:20;22.25;;;7.15;;
45402;SDS011;47427;51.976;5.326;2023-02-02T03:19:41;23.73;;;6.53;;
45402;SDS011;47427;51.976;5.326;2023-02-02T03:23:03;19.50;;;6.65;;
45402;SDS011;47427;51.976;5.326;2023-02-02T03:26:26;30.50;;;6.82;;
45402;SDS011;47427;51.976;5.326;2023-02-02T03:29:48;27.08;;;7.15;;
45402;SDS011;47427;51.976;5.326;2023-02-02T03:33:11;22.17;;;6.35;;
45402;SDS011;47427;51.976;5.326;2023-02-02T03:36:33;23.10;;;6.60;;
45402;SDS011;47427;51.976;5.326;2023-02-02T03:39:56;26.38;;;6.97;;
45402;SDS011;47427;51.976;5.326;2023-02-02T03:43:22;24.70;;;7.28;;
45402;SDS011;47427;51.976;5.326;2023-02-02T03:46:44;13.82;;;5.82;;
45402;SDS011;47427;51.976;5.326;2023-02-02T03:50:07;28.30;;;6.68;;
45402;SDS011;47427;51.976;5.326;2023-02-02T03:53:30;17.88;;;6.60;;
45402;SDS011;47427;51.976;5.326;2023-02-02T03:56:52;34.88;;;7.15;;
45402;SDS011;47427;51.976;5.326;2023-02-02T04:00:15;35.67;;;7.68;;
45402;SDS011;47427;51.976;5.326;2023-02-02T04:03:36;22.83;;;6.75;;
45402;SDS011;47427;51.976;5.326;2023-02-02T04:06:58;29.02;;;7.30;;
45402;SDS011;47427;51.976;5.326;2023-02-02T04:10:22;21.33;;;5.93;;
45402;SDS011;47427;51.976;5.326;2023-02-02T04:13:44;27.67;;;5.75;;
45402;SDS011;47427;51.976;5.326;2023-02-02T04:17:06;20.55;;;5.82;;
45402;SDS011;47427;51.976;5.326;2023-02-02T04:20:29;19.17;;;6.15;;
45402;SDS011;47427;51.976;5.326;2023-02-02T04:23:50;20.63;;;6.03;;
45402;SDS011;47427;51.976;5.326;2023-02-02T04:27:13;24.83;;;6.68;;
45402;SDS011;47427;51.976;5.326;2023-02-02T04:30:35;19.90;;;6.35;;
45402;SDS011;47427;51.976;5.326;2023-02-02T04:33:58;24.10;;;5.90;;
45402;SDS011;47427;51.976;5.326;2023-02-02T04:37:21;14.93;;;6.20;;
45402;SDS011;47427;51.976;5.326;2023-02-02T04:40:43;22.65;;;7.18;;
45402;SDS011;47427;51.976;5.326;2023-02-02T04:44:12;30.40;;;7.45;;
45402;SDS011;47427;51.976;5.326;2023-02-02T04:47:36;20.63;;;5.22;;
45402;SDS011;47427;51.976;5.326;2023-02-02T04:50:58;23.90;;;6.65;;
45402;SDS011;47427;51.976;5.326;2023-02-02T04:54:23;33.65;;;7.45;;
45402;SDS011;47427;51.976;5.326;2023-02-02T04:57:44;30.92;;;6.43;;
45402;SDS011;47427;51.976;5.326;2023-02-02T05:01:08;17.42;;;5.20;;
45402;SDS011;47427;51.976;5.326;2023-02-02T05:04:37;30.77;;;7.68;;
45402;SDS011;47427;51.976;5.326;2023-02-02T05:08:00;22.67;;;6.38;;
45402;SDS011;47427;51.976;5.326;2023-02-02T05:11:22;25.85;;;6.72;;
45402;SDS011;47427;51.976;5.326;2023-02-02T05:14:45;21.35;;;6.18;;
45402;SDS011;47427;51.976;5.326;2023-02-02T05:18:07;25.13;;;6.35;;
45402;SDS011;47427;51.976;5.326;2023-02-02T05:21:29;16.48;;;5.90;;
45402;SDS011;47427;51.976;5.326;2023-02-02T05:24:52;20.13;;;6.07;;
45402;SDS011;47427;51.976;5.326;2023-02-02T05:28:33;25.20;;;7.35;;
45402;SDS011;47427;51.976;5.326;2023-02-02T05:31:55;27.33;;;5.45;;
45402;SDS011;47427;51.976;5.326;2023-02-02T05:35:17;18.17;;;5.65;;
45402;SDS011;47427;51.976;5.326;2023-02-02T05:38:40;19.25;;;5.63;;
45402;SDS011;47427;51.976;5.326;2023-02-02T05:42:03;14.98;;;4.95;;
45402;SDS011;47427;51.976;5.326;2023-02-02T05:45:26;25.05;;;5.63;;
45402;SDS011;47427;51.976;5.326;2023-02-02T05:48:48;26.60;;;5.65;;
45402;SDS011;47427;51.976;5.326;2023-02-02T05:52:12;27.60;;;7.43;;
45402;SDS011;47427;51.976;5.326;2023-02-02T05:55:37;20.33;;;5.15;;
45402;SDS011;47427;51.976;5.326;2023-02-02T05:59:00;16.15;;;5.97;;
45402;SDS011;47427;51.976;5.326;2023-02-02T06:02:24;21.58;;;5.63;;
45402;SDS011;47427;51.976;5.326;2023-02-02T06:05:47;27.60;;;7.28;;
45402;SDS011;47427;51.976;5.326;2023-02-02T06:09:10;31.13;;;6.53;;
45402;SDS011;47427;51.976;5.326;2023-02-02T06:12:33;21.40;;;6.45;;
45402;SDS011;47427;51.976;5.326;2023-02-02T06:15:56;19.65;;;5.68;;
45402;SDS011;47427;51.976;5.326;2023-02-02T06:19:17;16.50;;;6.05;;
45402;SDS011;47427;51.976;5.326;2023-02-02T06:22:40;16.88;;;5.90;;
45402;SDS011;47427;51.976;5.326;2023-02-02T06:26:04;23.45;;;6.10;;
45402;SDS011;47427;51.976;5.326;2023-02-02T06:29:27;20.42;;;6.57;;
45402;SDS011;47427;51.976;5.326;2023-02-02T06:32:50;29.38;;;6.60;;
45402;SDS011;47427;51.976;5.326;2023-02-02T06:36:13;16.83;;;5.97;;
45402;SDS011;47427;51.976;5.326;2023-02-02T06:39:36;22.05;;;6.38;;
45402;SDS011;47427;51.976;5.326;2023-02-02T06:42:59;22.50;;;6.18;;
45402;SDS011;47427;51.976;5.326;2023-02-02T06:46:22;18.85;;;6.97;;
45402;SDS011;47427;51.976;5.326;2023-02-02T06:49:45;19.35;;;7.15;;
45402;SDS011;47427;51.976;5.326;2023-02-02T06:53:07;21.80;;;6.78;;
45402;SDS011;47427;51.976;5.326;2023-02-02T06:56:29;24.42;;;6.53;;
45402;SDS011;47427;51.976;5.326;2023-02-02T06:59:52;27.55;;;8.10;;
45402;SDS011;47427;51.976;5.326;2023-02-02T07:03:14;23.00;;;6.35;;
45402;SDS011;47427;51.976;5.326;2023-02-02T07:06:37;27.27;;;7.35;;
45402;SDS011;47427;51.976;5.326;2023-02-02T07:10:00;32.47;;;8.52;;
45402;SDS011;47427;51.976;5.326;2023-02-02T07:13:24;22.15;;;7.78;;
45402;SDS011;47427;51.976;5.326;2023-02-02T07:16:47;24.48;;;7.55;;
45402;SDS011;47427;51.976;5.326;2023-02-02T07:20:10;26.98;;;7.65;;
45402;SDS011;47427;51.976;5.326;2023-02-02T07:23:32;31.02;;;8.05;;
45402;SDS011;47427;51.976;5.326;2023-02-02T07:26:55;27.55;;;8.05;;
45402;SDS011;47427;51.976;5.326;2023-02-02T07:30:18;34.85;;;8.98;;
45402;SDS011;47427;51.976;5.326;2023-02-02T07:33:42;29.20;;;7.78;;
45402;SDS011;47427;51.976;5.326;2023-02-02T07:37:07;29.75;;;7.95;;
45402;SDS011;47427;51.976;5.326;2023-02-02T07:40:30;37.13;;;8.60;;
45402;SDS011;47427;51.976;5.326;2023-02-02T07:43:52;34.10;;;8.15;;
45402;SDS011;47427;51.976;5.326;2023-02-02T07:47:15;19.95;;;8.40;;
45402;SDS011;47427;51.976;5.326;2023-02-02T07:50:45;29.67;;;7.90;;
45402;SDS011;47427;51.976;5.326;2023-02-02T07:54:08;22.95;;;6.20;;
45402;SDS011;47427;51.976;5.326;2023-02-02T07:57:30;30.70;;;7.05;;
45402;SDS011;47427;51.976;5.326;2023-02-02T08:00:53;23.63;;;7.05;;
45402;SDS011;47427;51.976;5.326;2023-02-02T08:04:15;24.50;;;6.43;;
45402;SDS011;47427;51.976;5.326;2023-02-02T08:07:38;26.23;;;7.85;;
45402;SDS011;47427;51.976;5.326;2023-02-02T08:11:01;17.48;;;6.47;;
45402;SDS011;47427;51.976;5.326;2023-02-02T08:14:23;21.33;;;7.15;;
45402;SDS011;47427;51.976;5.326;2023-02-02T08:17:45;21.95;;;6.80;;
45402;SDS011;47427;51.976;5.326;2023-02-02T08:21:10;21.95;;;5.97;;
45402;SDS011;47427;51.976;5.326;2023-02-02T08:24:35;22.13;;;7.22;;
45402;SDS011;47427;51.976;5.326;2023-02-02T08:31:25;18.88;;;5.85;;
45402;SDS011;47427;51.976;5.326;2023-02-02T08:34:53;26.05;;;6.28;;
45402;SDS011;47427;51.976;5.326;2023-02-02T08:38:16;18.92;;;5.63;;
45402;SDS011;47427;51.976;5.326;2023-02-02T08:41:39;20.05;;;6.55;;
45402;SDS011;47427;51.976;5.326;2023-02-02T08:45:01;16.02;;;6.80;;
45402;SDS011;47427;51.976;5.326;2023-02-02T08:48:24;19.27;;;7.20;;
45402;SDS011;47427;51.976;5.326;2023-02-02T08:52:06;23.92;;;7.75;;
45402;SDS011;47427;51.976;5.326;2023-02-02T08:55:29;22.33;;;6.82;;
45402;SDS011;47427;51.976;5.326;2023-02-02T08:58:52;20.20;;;5.95;;
45402;SDS011;47427;51.976;5.326;2023-02-02T09:05:40;18.15;;;6.63;;
45402;SDS011;47427;51.976;5.326;2023-02-02T09:09:04;21.83;;;7.43;;
45402;SDS011;47427;51.976;5.326;2023-02-02T09:12:29;26.92;;;6.10;;
45402;SDS011;47427;51.976;5.326;2023-02-02T09:15:51;20.30;;;6.47;;
45402;SDS011;47427;51.976;5.326;2023-02-02T09:19:13;25.73;;;6.68;;
45402;SDS011;47427;51.976;5.326;2023-02-02T09:22:36;30.98;;;8.02;;
45402;SDS011;47427;51.976;5.326;2023-02-02T09:26:14;17.60;;;6.20;;
45402;SDS011;47427;51.976;5.326;2023-02-02T09:29:38;19.67;;;6.60;;
45402;SDS011;47427;51.976;5.326;2023-02-02T09:33:00;21.63;;;6.75;;
45402;SDS011;47427;51.976;5.326;2023-02-02T09:36:22;17.38;;;6.15;;
45402;SDS011;47427;51.976;5.326;2023-02-02T09:39:47;15.27;;;6.30;;
45402;SDS011;47427;51.976;5.326;2023-02-02T09:43:24;25.85;;;6.75;;
45402;SDS011;47427;51.976;5.326;2023-02-02T09:47:21;26.20;;;6.97;;
45402;SDS011;47427;51.976;5.326;2023-02-02T09:51:08;21.23;;;6.40;;
45402;SDS011;47427;51.976;5.326;2023-02-02T09:54:42;23.45;;;6.97;;
45402;SDS011;47427;51.976;5.326;2023-02-02T09:58:27;20.80;;;7.07;;
45402;SDS011;47427;51.976;5.326;2023-02-02T10:02:19;17.85;;;6.57;;
45402;SDS011;47427;51.976;5.326;2023-02-02T10:05:51;18.55;;;6.78;;
45402;SDS011;47427;51.976;5.326;2023-02-02T10:09:37;18.70;;;6.78;;
45402;SDS011;47427;51.976;5.326;2023-02-02T10:13:15;19.15;;;6.13;;
45402;SDS011;47427;51.976;5.326;2023-02-02T10:16:45;21.45;;;6.63;;
45402;SDS011;47427;51.976;5.326;2023-02-02T10:20:15;26.90;;;7.20;;
45402;SDS011;47427;51.976;5.326;2023-02-02T10:24:04;18.27;;;7.22;;
45402;SDS011;47427;51.976;5.326;2023-02-02T10:27:55;20.05;;;6.82;;
45402;SDS011;47427;51.976;5.326;2023-02-02T10:35:48;23.42;;;6.97;;
45402;SDS011;47427;51.976;5.326;2023-02-02T10:39:33;18.53;;;6.40;;
45402;SDS011;47427;51.976;5.326;2023-02-02T10:47:07;24.08;;;7.28;;
45402;SDS011;47427;51.976;5.326;2023-02-02T10:50:32;19.30;;;6.22;;
45402;SDS011;47427;51.976;5.326;2023-02-02T10:53:56;18.00;;;6.00;;
45402;SDS011;47427;51.976;5.326;2023-02-02T11:01:23;9.93;;;6.50;;
45402;SDS011;47427;51.976;5.326;2023-02-02T11:04:45;15.63;;;6.50;;
45402;SDS011;47427;51.976;5.326;2023-02-02T11:08:36;21.05;;;6.72;;
45402;SDS011;47427;51.976;5.326;2023-02-02T11:12:12;18.83;;;7.68;;
45402;SDS011;47427;51.976;5.326;2023-02-02T11:15:43;18.38;;;7.57;;
45402;SDS011;47427;51.976;5.326;2023-02-02T11:22:39;26.00;;;8.35;;
45402;SDS011;47427;51.976;5.326;2023-02-02T11:26:01;17.50;;;6.45;;
45402;SDS011;47427;51.976;5.326;2023-02-02T11:29:29;18.70;;;6.65;;
45402;SDS011;47427;51.976;5.326;2023-02-02T11:33:45;18.45;;;6.45;;
45402;SDS011;47427;51.976;5.326;2023-02-02T11:40:51;23.13;;;6.75;;
45402;SDS011;47427;51.976;5.326;2023-02-02T11:44:20;18.05;;;6.25;;
45402;SDS011;47427;51.976;5.326;2023-02-02T11:47:50;11.95;;;5.55;;
45402;SDS011;47427;51.976;5.326;2023-02-02T11:51:17;19.05;;;5.53;;
45402;SDS011;47427;51.976;5.326;2023-02-02T11:54:48;12.20;;;4.70;;
45402;SDS011;47427;51.976;5.326;2023-02-02T11:58:25;15.75;;;5.43;;
45402;SDS011;47427;51.976;5.326;2023-02-02T12:01:49;20.60;;;6.15;;
45402;SDS011;47427;51.976;5.326;2023-02-02T12:08:39;15.60;;;4.82;;
45402;SDS011;47427;51.976;5.326;2023-02-02T12:16:02;15.57;;;5.72;;
45402;SDS011;47427;51.976;5.326;2023-02-02T12:20:44;20.95;;;5.65;;
45402;SDS011;47427;51.976;5.326;2023-02-02T12:28:00;16.15;;;5.22;;
45402;SDS011;47427;51.976;5.326;2023-02-02T12:35:39;14.07;;;5.57;;
45402;SDS011;47427;51.976;5.326;2023-02-02T13:09:10;29.05;;;8.35;;
45402;SDS011;47427;51.976;5.326;2023-02-02T13:12:55;26.40;;;7.35;;
45402;SDS011;47427;51.976;5.326;2023-02-02T13:16:22;23.98;;;7.18;;
45402;SDS011;47427;51.976;5.326;2023-02-02T13:19:48;28.80;;;9.27;;
45402;SDS011;47427;51.976;5.326;2023-02-02T13:26:41;28.15;;;7.38;;
45402;SDS011;47427;51.976;5.326;2023-02-02T13:33:42;29.77;;;8.05;;
45402;SDS011;47427;51.976;5.326;2023-02-02T13:40:58;26.48;;;9.60;;
45402;SDS011;47427;51.976;5.326;2023-02-02T13:44:30;30.08;;;10.70;;
45402;SDS011;47427;51.976;5.326;2023-02-02T13:48:03;26.33;;;9.80;;
45402;SDS011;47427;51.976;5.326;2023-02-02T13:55:42;27.15;;;10.40;;
45402;SDS011;47427;51.976;5.326;2023-02-02T14:03:33;18.60;;;9.00;;
45402;SDS011;47427;51.976;5.326;2023-02-02T14:07:02;20.75;;;8.63;;
45402;SDS011;47427;51.976;5.326;2023-02-02T14:10:28;21.90;;;9.18;;
45402;SDS011;47427;51.976;5.326;2023-02-02T14:14:06;16.10;;;8.73;;
45402;SDS011;47427;51.976;5.326;2023-02-02T14:17:54;17.77;;;7.85;;
45402;SDS011;47427;51.976;5.326;2023-02-02T14:24:54;13.90;;;8.18;;
45402;SDS011;47427;51.976;5.326;2023-02-02T14:39:08;13.77;;;7.53;;
45402;SDS011;47427;51.976;5.326;2023-02-02T14:42:42;17.92;;;8.85;;
45402;SDS011;47427;51.976;5.326;2023-02-02T14:46:37;11.20;;;6.38;;
45402;SDS011;47427;51.976;5.326;2023-02-02T14:50:00;11.90;;;6.78;;
45402;SDS011;47427;51.976;5.326;2023-02-02T14:53:29;13.27;;;7.50;;
45402;SDS011;47427;51.976;5.326;2023-02-02T14:57:02;10.13;;;7.03;;
45402;SDS011;47427;51.976;5.326;2023-02-02T15:00:52;11.18;;;7.70;;
45402;SDS011;47427;51.976;5.326;2023-02-02T15:04:26;12.48;;;7.38;;
45402;SDS011;47427;51.976;5.326;2023-02-02T15:07:50;13.82;;;8.52;;
45402;SDS011;47427;51.976;5.326;2023-02-02T15:11:14;12.10;;;8.02;;
45402;SDS011;47427;51.976;5.326;2023-02-02T15:14:52;14.25;;;8.85;;
45402;SDS011;47427;51.976;5.326;2023-02-02T15:18:58;12.38;;;8.60;;
45402;SDS011;47427;51.976;5.326;2023-02-02T15:22:35;15.38;;;9.43;;
45402;SDS011;47427;51.976;5.326;2023-02-02T15:26:07;10.73;;;9.63;;
45402;SDS011;47427;51.976;5.326;2023-02-02T15:29:45;20.35;;;11.98;;
45402;SDS011;47427;51.976;5.326;2023-02-02T15:36:52;16.05;;;11.45;;
45402;SDS011;47427;51.976;5.326;2023-02-02T15:40:20;21.02;;;13.55;;
45402;SDS011;47427;51.976;5.326;2023-02-02T15:43:45;17.02;;;12.00;;
45402;SDS011;47427;51.976;5.326;2023-02-02T15:47:14;19.35;;;13.65;;
45402;SDS011;47427;51.976;5.326;2023-02-02T15:50:42;19.10;;;13.30;;
45402;SDS011;47427;51.976;5.326;2023-02-02T15:54:19;19.35;;;12.80;;
45402;SDS011;47427;51.976;5.326;2023-02-02T15:57:49;26.10;;;16.75;;
45402;SDS011;47427;51.976;5.326;2023-02-02T16:01:18;21.30;;;15.07;;
45402;SDS011;47427;51.976;5.326;2023-02-02T16:04:45;27.33;;;15.52;;
45402;SDS011;47427;51.976;5.326;2023-02-02T16:08:11;22.48;;;15.00;;
45402;SDS011;47427;51.976;5.326;2023-02-02T16:11:40;27.45;;;17.45;;
45402;SDS011;47427;51.976;5.326;2023-02-02T16:15:15;25.83;;;14.27;;
45402;SDS011;47427;51.976;5.326;2023-02-02T16:18:44;25.30;;;12.98;;
45402;SDS011;47427;51.976;5.326;2023-02-02T16:22:08;27.48;;;13.02;;
45402;SDS011;47427;51.976;5.326;2023-02-02T16:25:45;24.10;;;12.98;;
45402;SDS011;47427;51.976;5.326;2023-02-02T16:29:11;27.52;;;15.57;;
45402;SDS011;47427;51.976;5.326;2023-02-02T16:32:38;27.98;;;15.35;;
45402;SDS011;47427;51.976;5.326;2023-02-02T16:36:02;25.35;;;12.35;;
45402;SDS011;47427;51.976;5.326;2023-02-02T16:39:42;30.98;;;11.85;;
45402;SDS011;47427;51.976;5.326;2023-02-02T16:43:06;30.52;;;11.93;;
45402;SDS011;47427;51.976;5.326;2023-02-02T16:46:49;29.25;;;11.38;;
45402;SDS011;47427;51.976;5.326;2023-02-02T16:50:17;35.72;;;10.02;;
45402;SDS011;47427;51.976;5.326;2023-02-02T16:53:51;20.27;;;9.70;;
45402;SDS011;47427;51.976;5.326;2023-02-02T16:57:38;36.15;;;9.50;;
45402;SDS011;47427;51.976;5.326;2023-02-02T17:01:03;29.50;;;9.98;;
45402;SDS011;47427;51.976;5.326;2023-02-02T17:04:34;29.83;;;9.23;;
45402;SDS011;47427;51.976;5.326;2023-02-02T17:11:26;33.63;;;9.40;;
45402;SDS011;47427;51.976;5.326;2023-02-02T17:14:52;26.45;;;10.52;;
45402;SDS011;47427;51.976;5.326;2023-02-02T17:18:21;27.02;;;9.52;;
45402;SDS011;47427;51.976;5.326;2023-02-02T17:22:03;28.65;;;10.18;;
45402;SDS011;47427;51.976;5.326;2023-02-02T17:29:13;26.60;;;11.52;;
45402;SDS011;47427;51.976;5.326;2023-02-02T17:32:38;34.53;;;12.68;;
45402;SDS011;47427;51.976;5.326;2023-02-02T17:36:00;22.05;;;10.57;;
45402;SDS011;47427;51.976;5.326;2023-02-02T17:39:23;22.95;;;8.70;;
45402;SDS011;47427;51.976;5.326;2023-02-02T17:42:46;17.92;;;8.00;;
45402;SDS011;47427;51.976;5.326;2023-02-02T17:46:13;24.50;;;7.90;;
45402;SDS011;47427;51.976;5.326;2023-02-02T17:49:54;18.08;;;9.02;;
45402;SDS011;47427;51.976;5.326;2023-02-02T17:53:18;22.00;;;8.88;;
45402;SDS011;47427;51.976;5.326;2023-02-02T17:56:42;24.63;;;8.75;;
45402;SDS011;47427;51.976;5.326;2023-02-02T18:00:04;16.60;;;8.07;;
45402;SDS011;47427;51.976;5.326;2023-02-02T18:03:32;21.42;;;9.73;;
45402;SDS011;47427;51.976;5.326;2023-02-02T18:06:58;24.65;;;8.98;;
45402;SDS011;47427;51.976;5.326;2023-02-02T18:10:19;25.80;;;8.88;;
45402;SDS011;47427;51.976;5.326;2023-02-02T18:13:45;25.35;;;8.85;;
45402;SDS011;47427;51.976;5.326;2023-02-02T18:17:07;20.48;;;7.70;;
45402;SDS011;47427;51.976;5.326;2023-02-02T18:20:29;21.60;;;7.57;;
45402;SDS011;47427;51.976;5.326;2023-02-02T18:23:52;18.48;;;7.32;;
45402;SDS011;47427;51.976;5.326;2023-02-02T18:27:13;19.45;;;7.95;;
45402;SDS011;47427;51.976;5.326;2023-02-02T18:30:39;26.75;;;7.15;;
45402;SDS011;47427;51.976;5.326;2023-02-02T18:34:02;18.33;;;7.47;;
45402;SDS011;47427;51.976;5.326;2023-02-02T18:37:23;28.60;;;7.55;;
45402;SDS011;47427;51.976;5.326;2023-02-02T18:40:52;24.70;;;7.35;;
45402;SDS011;47427;51.976;5.326;2023-02-02T18:44:18;20.00;;;6.03;;
45402;SDS011;47427;51.976;5.326;2023-02-02T18:47:41;20.83;;;9.30;;
45402;SDS011;47427;51.976;5.326;2023-02-02T18:51:04;21.35;;;8.10;;
45402;SDS011;47427;51.976;5.326;2023-02-02T18:54:29;16.45;;;7.03;;
45402;SDS011;47427;51.976;5.326;2023-02-02T18:57:52;23.20;;;8.20;;
45402;SDS011;47427;51.976;5.326;2023-02-02T19:01:15;20.13;;;7.43;;
45402;SDS011;47427;51.976;5.326;2023-02-02T19:04:58;18.95;;;6.78;;
45402;SDS011;47427;51.976;5.326;2023-02-02T19:08:40;18.40;;;6.28;;
45402;SDS011;47427;51.976;5.326;2023-02-02T19:12:08;23.13;;;7.03;;
45402;SDS011;47427;51.976;5.326;2023-02-02T19:15:36;23.60;;;7.93;;
45402;SDS011;47427;51.976;5.326;2023-02-02T19:19:03;20.55;;;7.88;;
45402;SDS011;47427;51.976;5.326;2023-02-02T19:23:00;18.70;;;9.25;;
45402;SDS011;47427;51.976;5.326;2023-02-02T19:26:39;24.00;;;8.30;;
45402;SDS011;47427;51.976;5.326;2023-02-02T19:30:17;18.73;;;7.63;;
45402;SDS011;47427;51.976;5.326;2023-02-02T19:33:49;25.35;;;7.78;;
45402;SDS011;47427;51.976;5.326;2023-02-02T19:37:22;24.20;;;6.57;;
45402;SDS011;47427;51.976;5.326;2023-02-02T19:40:47;26.02;;;9.27;;
45402;SDS011;47427;51.976;5.326;2023-02-02T19:44:15;16.60;;;6.65;;
45402;SDS011;47427;51.976;5.326;2023-02-02T19:47:40;26.60;;;8.80;;
45402;SDS011;47427;51.976;5.326;2023-02-02T19:51:22;21.38;;;7.65;;
45402;SDS011;47427;51.976;5.326;2023-02-02T19:55:08;22.15;;;7.00;;
45402;SDS011;47427;51.976;5.326;2023-02-02T19:58:42;24.48;;;7.15;;
45402;SDS011;47427;51.976;5.326;2023-02-02T20:06:26;21.15;;;6.40;;
45402;SDS011;47427;51.976;5.326;2023-02-02T20:09:51;16.45;;;5.90;;
45402;SDS011;47427;51.976;5.326;2023-02-02T20:13:18;23.55;;;5.68;;
45402;SDS011;47427;51.976;5.326;2023-02-02T20:17:17;18.58;;;6.80;;
45402;SDS011;47427;51.976;5.326;2023-02-02T20:20:53;13.90;;;5.75;;
45402;SDS011;47427;51.976;5.326;2023-02-02T20:24:17;26.42;;;6.70;;
45402;SDS011;47427;51.976;5.326;2023-02-02T20:27:44;18.02;;;5.45;;
45402;SDS011;47427;51.976;5.326;2023-02-02T20:31:09;22.52;;;6.15;;
45402;SDS011;47427;51.976;5.326;2023-02-02T20:34:40;23.45;;;7.18;;
45402;SDS011;47427;51.976;5.326;2023-02-02T20:38:19;20.55;;;6.22;;
45402;SDS011;47427;51.976;5.326;2023-02-02T20:41:53;24.58;;;7.00;;
45402;SDS011;47427;51.976;5.326;2023-02-02T20:45:18;23.15;;;6.50;;
45402;SDS011;47427;51.976;5.326;2023-02-02T20:48:42;31.40;;;7.47;;
45402;SDS011;47427;51.976;5.326;2023-02-02T20:52:06;29.45;;;8.15;;
45402;SDS011;47427;51.976;5.326;2023-02-02T20:55:32;24.88;;;7.13;;
45402;SDS011;47427;51.976;5.326;2023-02-02T20:58:55;26.88;;;8.20;;
45402;SDS011;47427;51.976;5.326;2023-02-02T21:02:18;25.15;;;7.47;;
45402;SDS011;47427;51.976;5.326;2023-02-02T21:05:41;26.60;;;6.82;;
45402;SDS011;47427;51.976;5.326;2023-02-02T21:09:03;31.40;;;8.20;;
45402;SDS011;47427;51.976;5.326;2023-02-02T21:12:27;28.20;;;7.82;;
45402;SDS011;47427;51.976;5.326;2023-02-02T21:15:48;30.33;;;6.97;;
45402;SDS011;47427;51.976;5.326;2023-02-02T21:19:11;33.38;;;8.30;;
45402;SDS011;47427;51.976;5.326;2023-02-02T21:22:33;28.65;;;6.82;;
45402;SDS011;47427;51.976;5.326;2023-02-02T21:26:20;20.02;;;6.38;;
45402;SDS011;47427;51.976;5.326;2023-02-02T21:29:47;20.95;;;7.03;;
45402;SDS011;47427;51.976;5.326;2023-02-02T21:33:09;19.48;;;6.80;;
45402;SDS011;47427;51.976;5.326;2023-02-02T21:36:33;22.38;;;6.80;;
45402;SDS011;47427;51.976;5.326;2023-02-02T21:39:57;28.25;;;7.07;;
45402;SDS011;47427;51.976;5.326;2023-02-02T21:43:19;24.63;;;7.40;;
45402;SDS011;47427;51.976;5.326;2023-02-02T21:46:41;27.05;;;6.95;;
45402;SDS011;47427;51.976;5.326;2023-02-02T21:53:35;30.17;;;6.85;;
45402;SDS011;47427;51.976;5.326;2023-02-02T21:56:58;15.82;;;5.85;;
45402;SDS011;47427;51.976;5.326;2023-02-02T22:00:27;26.33;;;6.18;;
45402;SDS011;47427;51.976;5.326;2023-02-02T22:03:53;27.15;;;6.43;;
45402;SDS011;47427;51.976;5.326;2023-02-02T22:07:15;19.27;;;6.20;;
45402;SDS011;47427;51.976;5.326;2023-02-02T22:10:37;25.13;;;6.95;;
45402;SDS011;47427;51.976;5.326;2023-02-02T22:14:16;29.70;;;7.00;;
45402;SDS011;47427;51.976;5.326;2023-02-02T22:18:10;20.20;;;6.82;;
45402;SDS011;47427;51.976;5.326;2023-02-02T22:21:37;27.80;;;7.78;;
45402;SDS011;47427;51.976;5.326;2023-02-02T22:25:04;25.60;;;7.53;;
45402;SDS011;47427;51.976;5.326;2023-02-02T22:28:37;23.20;;;7.85;;
45402;SDS011;47427;51.976;5.326;2023-02-02T22:32:01;20.98;;;6.35;;
45402;SDS011;47427;51.976;5.326;2023-02-02T22:35:22;29.23;;;6.25;;
45402;SDS011;47427;51.976;5.326;2023-02-02T22:38:45;30.50;;;6.90;;
45402;SDS011;47427;51.976;5.326;2023-02-02T22:42:07;23.50;;;6.20;;
45402;SDS011;47427;51.976;5.326;2023-02-02T22:45:31;22.38;;;5.95;;
45402;SDS011;47427;51.976;5.326;2023-02-02T22:48:54;19.05;;;5.63;;
45402;SDS011;47427;51.976;5.326;2023-02-02T22:52:15;21.10;;;6.78;;
45402;SDS011;47427;51.976;5.326;2023-02-02T22:55:38;21.50;;;6.45;;
45402;SDS011;47427;51.976;5.326;2023-02-02T22:59:01;23.05;;;5.72;;
45402;SDS011;47427;51.976;5.326;2023-02-02T23:02:23;24.95;;;6.82;;